Terminal Aerodrome Forecast
Issued by NWS Charleston, WV

Current Version | Previous Version | Text Only | Print | Product List | Glossary Off
Versions: 1 2 3 4 5 6 7 8 9 10 11 12 13 14 15 16 17 18 19 20 21 22 23 24 25 26 27

000
FTUS41 KRLX 161729
TAFEKN
TAF
KEKN 161729Z 1618/1718 29012G22KT P6SM OVC035
     FM161900 29012G22KT P6SM OVC025
     FM162300 30009G16KT P6SM OVC025
     FM170100 30007KT P6SM OVC025
     FM170700 30003KT P6SM OVC020
     FM171100 00000KT P6SM SCT250=

USA.gov is the U.S. government's official web portal to all federal, state and local government web resources and services.